Time;durP1;ratioP1;P1;durP2;ratioP2;P2;SDS_P1;SDS_P2;PMS_P1;PMS_P2;Temp;Humidity;BMP_temperature;BMP_pressure;BME280_temperature;BME280_humidity;BME280_pressure;Samples;Min_cycle;Max_cycle;Signal;HPM_P1;HPM_P2
2021/09/21 00:02:26;;;;;;;29.08;21.67;;;;;;;17.44;76.21;101991.44;5013842;28;20500;-64
2021/09/21 00:04:54;;;;;;;28.90;21.30;;;;;;;17.06;72.89;101984.88;5014991;28;20054;-66
2021/09/21 00:07:21;;;;;;;23.45;18.02;;;;;;;17.19;77.09;101983.88;5015838;28;20038;-64
2021/09/21 00:09:49;;;;;;;30.08;19.65;;;;;;;17.89;71.80;101987.13;4995336;28;20061;-66
2021/09/21 00:12:16;;;;;;;24.27;17.80;;;;;;;18.36;71.42;101989.94;5000452;28;20137;-64
2021/09/21 00:14:43;;;;;;;26.02;19.60;;;;;;;17.65;70.85;101992.44;5014692;28;20512;-64
2021/09/21 00:17:10;;;;;;;25.48;18.58;;;;;;;18.01;69.22;102005.16;5014683;28;20046;-64
2021/09/21 00:19:38;;;;;;;26.55;18.73;;;;;;;17.63;72.14;102005.03;5029946;28;20061;-64
2021/09/21 00:22:05;;;;;;;26.67;18.80;;;;;;;17.72;72.04;102003.91;5012906;28;20049;-65
2021/09/21 00:24:32;;;;;;;25.85;19.20;;;;;;;17.16;70.59;102015.19;5005646;28;20168;-65
2021/09/21 00:27:00;;;;;;;30.63;19.75;;;;;;;16.78;71.59;102014.13;4993002;28;20069;-65
2021/09/21 00:29:28;;;;;;;25.65;18.33;;;;;;;17.39;76.06;102011.09;5010058;28;20054;-64
2021/09/21 00:32:00;;;;;;;28.05;19.40;;;;;;;17.87;70.12;102017.31;4993851;28;20050;-62
2021/09/21 00:34:37;;;;;;;25.50;18.30;;;;;;;17.54;72.75;102007.84;4993980;28;20054;-63
2021/09/21 00:37:12;;;;;;;21.85;16.77;;;;;;;17.95;72.37;102005.34;4994654;28;20058;-63
2021/09/21 00:39:41;;;;;;;27.40;18.05;;;;;;;17.80;70.22;102008.63;5009633;28;20053;-62
2021/09/21 00:42:09;;;;;;;24.80;18.60;;;;;;;18.10;71.37;102008.75;4995038;28;20046;-62
2021/09/21 00:44:37;;;;;;;23.00;18.48;;;;;;;18.32;67.83;102002.91;5009056;28;20139;-63
2021/09/21 00:47:07;;;;;;;25.92;20.42;;;;;;;17.05;71.92;102004.69;5032387;28;20135;-61
2021/09/21 00:49:35;;;;;;;28.65;20.35;;;;;;;17.10;71.74;101997.00;5025167;28;20053;-62
2021/09/21 00:52:03;;;;;;;30.40;19.67;;;;;;;17.44;71.97;102015.66;4994383;28;20057;-63
2021/09/21 00:54:30;;;;;;;28.80;20.05;;;;;;;16.81;68.97;102019.03;4993298;28;20489;-62
2021/09/21 00:56:58;;;;;;;28.98;20.45;;;;;;;16.14;74.27;102014.84;5009471;28;20409;-62
2021/09/21 00:59:25;;;;;;;24.08;18.50;;;;;;;16.88;75.03;102014.66;5012074;28;20041;-62
2021/09/21 01:01:52;;;;;;;28.98;20.02;;;;;;;15.96;73.30;102007.53;5013040;28;20057;-62
2021/09/21 01:04:20;;;;;;;32.63;19.60;;;;;;;16.72;74.75;102004.28;5014197;28;20053;-62
2021/09/21 01:06:47;;;;;;;25.48;19.10;;;;;;;16.72;71.79;102009.84;5014275;28;20045;-62
2021/09/21 01:09:24;;;;;;;27.98;20.15;;;;;;;15.86;72.01;102016.97;5032012;28;20053;-63
2021/09/21 01:11:53;;;;;;;33.05;21.13;;;;;;;15.40;74.32;102028.38;5019502;28;20054;-63
2021/09/21 01:14:21;;;;;;;35.05;20.45;;;;;;;15.50;73.54;102032.84;4997974;28;20051;-62
2021/09/21 01:16:48;;;;;;;28.23;20.42;;;;;;;15.69;73.53;102034.31;4998159;28;20054;-63
2021/09/21 01:19:16;;;;;;;30.52;19.98;;;;;;;16.07;77.99;102037.53;4998161;28;20054;-62
2021/09/21 01:21:46;;;;;;;31.42;21.17;;;;;;;15.35;73.46;102034.03;5014348;28;20058;-63
2021/09/21 01:24:15;;;;;;;29.27;21.63;;;;;;;14.92;75.87;102043.06;5017203;28;20049;-64
2021/09/21 01:26:43;;;;;;;29.73;20.55;;;;;;;15.33;74.90;102024.34;5032520;28;20499;-63
2021/09/21 01:29:11;;;;;;;27.85;19.65;;;;;;;15.79;77.58;102034.06;5017372;28;20511;-65
2021/09/21 01:31:40;;;;;;;32.97;21.90;;;;;;;15.55;72.66;102033.56;5014459;28;20515;-64
2021/09/21 01:34:07;;;;;;;30.60;20.73;;;;;;;16.48;71.15;102029.75;4998614;28;20054;-64
2021/09/21 01:36:36;;;;;;;27.23;18.20;;;;;;;16.89;72.65;102024.63;4997260;28;20057;-64
2021/09/21 01:39:03;;;;;;;29.75;20.25;;;;;;;17.37;70.22;102035.66;4997383;28;20516;-65
2021/09/21 01:41:30;;;;;;;31.05;22.08;;;;;;;16.18;69.37;102041.66;4997731;28;20074;-64
2021/09/21 01:43:58;;;;;;;32.80;23.00;;;;;;;15.61;71.51;102043.44;4996448;28;20058;-66
2021/09/21 01:46:25;;;;;;;25.98;20.05;;;;;;;16.43;72.71;102038.19;5042644;28;20045;-64
2021/09/21 01:48:52;;;;;;;30.13;21.30;;;;;;;15.75;72.27;102040.56;5036835;28;20120;-65
2021/09/21 01:51:37;;;;;;;31.38;20.85;;;;;;;16.33;74.21;102038.50;5036548;28;20049;-64
2021/09/21 01:59:26;;;;;;;28.50;20.50;;;;;;;17.21;71.69;102031.72;4997081;28;20058;-64
2021/09/21 02:01:54;;;;;;;30.83;22.95;;;;;;;16.45;67.75;102043.44;5012234;28;20054;-64
2021/09/21 02:04:21;;;;;;;35.67;24.13;;;;;;;16.49;70.76;102044.47;4995288;28;20061;-64
2021/09/21 02:06:49;;;;;;;30.75;23.30;;;;;;;16.27;67.52;102045.31;5015367;28;20045;-65
2021/09/21 02:09:16;;;;;;;30.80;23.33;;;;;;;15.74;71.08;102055.63;5014131;28;20046;-65
2021/09/21 02:11:44;;;;;;;34.28;23.48;;;;;;;16.25;73.23;102044.00;5031746;28;20065;-65
2021/09/21 02:14:14;;;;;;;33.03;23.73;;;;;;;15.85;69.44;102053.41;5016700;28;20054;-65
2021/09/21 02:16:45;;;;;;;40.13;24.83;;;;;;;15.12;74.13;102059.25;5016565;28;20461;-64
2021/09/21 02:19:12;;;;;;;33.80;22.30;;;;;;;15.44;74.18;102056.34;5006749;28;20815;-65
2021/09/21 02:21:40;;;;;;;33.60;23.63;;;;;;;15.15;75.52;102067.78;5009898;28;20050;-64
2021/09/21 02:24:08;;;;;;;34.20;23.05;;;;;;;15.18;75.77;102060.81;5016917;28;20054;-64
2021/09/21 02:26:35;;;;;;;35.67;23.77;;;;;;;15.15;73.25;102061.44;5016518;28;20053;-64
2021/09/21 02:29:02;;;;;;;33.80;24.88;;;;;;;15.00;76.47;102068.13;5017176;28;20551;-64
2021/09/21 02:31:30;;;;;;;33.40;22.08;;;;;;;15.93;76.28;102058.19;5031278;28;20054;-65
2021/09/21 02:33:57;;;;;;;35.67;23.77;;;;;;;15.65;71.11;102063.06;4997175;28;20054;-64
2021/09/21 02:36:24;;;;;;;31.45;21.27;;;;;;;15.64;74.03;102070.56;4994611;28;20054;-64
2021/09/21 02:38:51;;;;;;;35.55;25.85;;;;;;;15.41;74.16;102066.09;4995283;28;20058;-64
2021/09/21 02:41:19;;;;;;;33.60;22.33;;;;;;;16.31;74.25;102068.56;4996002;28;20061;-64
2021/09/21 02:43:46;;;;;;;32.78;24.13;;;;;;;15.89;73.50;102066.34;4996603;28;20058;-65
2021/09/21 02:46:14;;;;;;;29.05;22.02;;;;;;;16.06;75.60;102065.63;5007513;28;20046;-65
2021/09/21 02:48:41;;;;;;;30.48;21.13;;;;;;;16.95;72.05;102066.22;4996458;28;20058;-64
2021/09/21 02:51:08;;;;;;;35.58;22.63;;;;;;;16.82;70.92;102054.88;4996497;28;20663;-65
2021/09/21 02:53:36;;;;;;;33.95;24.42;;;;;;;17.15;70.93;102054.50;4996414;28;20069;-65
2021/09/21 02:56:03;;;;;;;31.85;23.10;;;;;;;16.78;71.98;102047.53;4996148;28;20058;-65
2021/09/21 02:58:30;;;;;;;29.27;21.80;;;;;;;17.56;68.99;102044.56;4996034;28;20070;-65
2021/09/21 03:00:59;;;;;;;31.90;23.02;;;;;;;17.62;67.32;102056.34;5005903;28;20061;-65
2021/09/21 03:03:33;;;;;;;34.95;23.88;;;;;;;17.35;67.39;102046.31;5015887;28;20058;-65
2021/09/21 03:06:07;;;;;;;30.95;23.52;;;;;;;17.52;66.52;102051.13;5014942;28;20054;-65
2021/09/21 03:08:36;;;;;;;30.80;22.25;;;;;;;16.51;71.13;102056.09;5029842;28;20377;-65
2021/09/21 03:11:17;;;;;;;35.90;25.92;;;;;;;16.59;68.63;102069.22;5014635;28;20046;-65
2021/09/21 03:19:07;;;;;;;34.35;25.85;;;;;;;15.78;74.05;102076.88;4996316;28;20171;-65
2021/09/21 03:21:34;;;;;;;29.75;22.13;;;;;;;15.89;76.19;102076.63;4995904;28;20053;-65
2021/09/21 03:24:02;;;;;;;33.25;23.92;;;;;;;15.99;70.76;102081.94;5004410;28;20049;-64
2021/09/21 03:26:29;;;;;;;31.08;23.45;;;;;;;16.57;73.73;102077.91;5014658;28;20050;-64
2021/09/21 03:28:56;;;;;;;29.73;23.40;;;;;;;17.17;69.36;102078.09;5015246;28;20049;-64
2021/09/21 03:31:24;;;;;;;32.40;23.98;;;;;;;16.85;68.70;102070.97;5013509;28;20061;-64
2021/09/21 03:33:51;;;;;;;36.85;25.95;;;;;;;15.75;70.31;102088.63;5015583;28;20058;-64
2021/09/21 03:36:18;;;;;;;34.85;24.90;;;;;;;15.14;73.44;102099.47;5012154;28;20054;-64
2021/09/21 03:38:45;;;;;;;35.00;24.30;;;;;;;14.81;79.51;102097.94;5013918;28;20064;-64
2021/09/21 03:41:13;;;;;;;36.97;25.60;;;;;;;15.05;74.77;102106.03;5015187;28;20049;-65
2021/09/21 03:43:40;;;;;;;37.42;26.02;;;;;;;14.77;75.44;102096.91;5014070;28;20054;-65
2021/09/21 03:46:07;;;;;;;35.00;27.42;;;;;;;14.96;77.01;102099.59;5026470;28;20060;-65
2021/09/21 03:48:35;;;;;;;31.92;23.75;;;;;;;15.32;77.15;102098.50;5004232;28;20050;-65
2021/09/21 03:51:02;;;;;;;42.20;29.98;;;;;;;15.50;73.74;102091.16;4995318;28;20042;-64
2021/09/21 03:53:29;;;;;;;34.92;25.92;;;;;;;16.36;70.89;102087.91;4995378;28;20057;-65
2021/09/21 03:55:57;;;;;;;36.88;29.63;;;;;;;16.49;71.92;102088.97;4995084;28;20034;-64
2021/09/21 03:58:24;;;;;;;41.92;29.45;;;;;;;16.75;70.76;102095.47;4994086;28;20058;-64
2021/09/21 04:00:51;;;;;;;43.78;30.63;;;;;;;15.56;70.30;102093.53;4996977;28;20051;-65
2021/09/21 04:03:19;;;;;;;41.67;29.92;;;;;;;15.79;73.02;102095.19;5013093;28;20674;-65
2021/09/21 04:05:46;;;;;;;37.95;28.42;;;;;;;16.16;70.32;102104.28;5015025;28;20615;-65
2021/09/21 04:08:13;;;;;;;29.98;23.48;;;;;;;17.16;70.79;102095.94;5014387;28;20137;-65
2021/09/21 04:10:41;;;;;;;28.75;23.48;;;;;;;17.67;68.11;102096.03;5017367;28;20046;-64
2021/09/21 04:13:08;;;;;;;35.90;28.85;;;;;;;17.06;68.95;102107.38;5014449;28;20496;-64
2021/09/21 04:15:35;;;;;;;32.78;24.55;;;;;;;17.49;67.96;102110.25;5004404;28;20070;-65
2021/09/21 04:18:04;;;;;;;36.85;27.42;;;;;;;16.80;67.46;102107.28;4993241;28;20062;-65
2021/09/21 04:20:32;;;;;;;35.92;27.02;;;;;;;16.63;66.25;102106.41;5009879;28;20058;-65
2021/09/21 04:22:59;;;;;;;35.80;28.38;;;;;;;16.45;70.91;102108.25;4994782;28;20058;-64
2021/09/21 04:25:29;;;;;;;42.03;30.45;;;;;;;15.78;72.41;102115.78;4994993;28;20080;-65
2021/09/21 04:27:58;;;;;;;40.58;30.17;;;;;;;15.52;71.26;102133.34;5009432;28;20069;-64
2021/09/21 04:30:25;;;;;;;37.60;28.52;;;;;;;15.68;73.23;102120.75;5005292;28;20038;-65
2021/09/21 04:32:53;;;;;;;35.92;27.60;;;;;;;15.35;73.23;102128.44;4995408;28;20054;-65
2021/09/21 04:35:20;;;;;;;39.60;26.77;;;;;;;16.27;70.65;102131.50;4994801;28;20058;-65
2021/09/21 04:37:47;;;;;;;35.60;25.92;;;;;;;16.61;70.32;102128.97;5004341;28;20417;-64
2021/09/21 04:40:15;;;;;;;40.88;26.60;;;;;;;15.49;73.82;102140.34;4994700;28;20046;-65
2021/09/21 04:42:42;;;;;;;39.42;29.67;;;;;;;15.42;72.50;102134.41;5007279;28;20052;-64
2021/09/21 04:45:10;;;;;;;38.03;29.15;;;;;;;14.42;76.84;102144.72;5037012;28;20050;-65
2021/09/21 04:47:40;;;;;;;41.05;30.10;;;;;;;14.87;74.72;102143.06;5037907;28;20079;-66
2021/09/21 04:50:07;;;;;;;35.80;28.48;;;;;;;14.91;76.73;102144.88;5037924;28;20049;-65
2021/09/21 04:52:35;;;;;;;38.20;27.88;;;;;;;15.06;75.28;102144.59;5037739;28;20050;-65
2021/09/21 04:55:04;;;;;;;39.08;29.02;;;;;;;14.95;75.65;102145.94;5024498;28;20041;-65
2021/09/21 04:57:31;;;;;;;36.83;26.80;;;;;;;15.39;77.07;102134.19;5017858;28;20064;-65
2021/09/21 04:59:58;;;;;;;36.85;28.63;;;;;;;15.00;76.51;102136.66;5018108;28;20049;-65
2021/09/21 05:02:25;;;;;;;40.17;31.02;;;;;;;14.59;76.79;102145.78;5017753;28;20054;-65
2021/09/21 05:04:53;;;;;;;35.85;27.85;;;;;;;14.96;79.20;102149.53;5017214;28;20060;-65
2021/09/21 05:07:20;;;;;;;44.28;30.88;;;;;;;14.27;77.46;102139.44;5017307;28;20057;-65
2021/09/21 05:09:47;;;;;;;46.58;33.80;;;;;;;14.12;77.31;102148.81;5018252;28;20034;-65
2021/09/21 05:12:15;;;;;;;41.42;30.80;;;;;;;15.11;79.06;102141.72;5002870;28;20061;-65
2021/09/21 05:14:42;;;;;;;42.13;32.05;;;;;;;14.86;73.68;102133.91;4998656;28;20050;-66
2021/09/21 05:17:09;;;;;;;39.08;30.90;;;;;;;14.49;77.28;102145.97;4998071;28;20440;-66
2021/09/21 05:19:37;;;;;;;41.90;30.45;;;;;;;14.92;77.89;102145.72;4998513;28;20050;-65
2021/09/21 05:22:04;;;;;;;31.80;25.65;;;;;;;15.67;74.92;102131.03;4998136;28;20054;-65
2021/09/21 05:24:31;;;;;;;37.85;28.67;;;;;;;16.52;71.21;102128.09;4996796;28;20054;-63
2021/09/21 05:26:58;;;;;;;34.97;27.65;;;;;;;15.71;72.19;102139.56;4998135;28;20053;-63
2021/09/21 05:29:26;;;;;;;43.00;30.67;;;;;;;15.16;73.17;102141.59;4996439;28;20054;-62
2021/09/21 05:31:53;;;;;;;35.90;27.05;;;;;;;16.33;71.00;102140.53;5031994;28;20508;-62
2021/09/21 05:34:20;;;;;;;38.45;28.48;;;;;;;16.62;67.41;102146.47;5037207;28;20048;-63
2021/09/21 05:36:47;;;;;;;34.65;26.65;;;;;;;16.61;67.46;102148.44;5036984;28;20049;-64
2021/09/21 05:39:16;;;;;;;33.33;26.70;;;;;;;16.14;69.27;102162.16;5035768;28;20530;-63
2021/09/21 05:41:43;;;;;;;37.72;27.45;;;;;;;15.79;66.69;102167.41;5029220;28;20077;-63
2021/09/21 05:44:10;;;;;;;37.10;30.15;;;;;;;15.45;68.77;102180.97;5017112;28;20061;-62
2021/09/21 05:46:40;;;;;;;30.55;24.50;;;;;;;15.69;72.10;102177.97;5032917;28;20049;-62
2021/09/21 05:49:08;;;;;;;33.03;26.05;;;;;;;15.56;69.17;102176.88;5036797;28;20050;-63
2021/09/21 05:51:35;;;;;;;37.65;25.45;;;;;;;15.24;68.53;102187.22;5036960;28;20056;-62
2021/09/21 05:54:02;;;;;;;34.03;27.02;;;;;;;15.14;69.75;102196.59;5036891;28;20054;-63
2021/09/21 05:56:30;;;;;;;29.85;23.63;;;;;;;15.39;70.55;102192.50;5036857;28;20434;-64
2021/09/21 05:58:58;;;;;;;32.53;23.77;;;;;;;15.14;68.58;102193.81;5037271;28;20492;-64
2021/09/21 06:01:26;;;;;;;31.20;23.73;;;;;;;15.19;71.77;102201.22;5016409;28;20054;-66
2021/09/21 06:03:53;;;;;;;29.13;22.75;;;;;;;15.84;65.88;102199.00;5017295;28;20046;-65
2021/09/21 06:06:21;;;;;;;31.70;22.60;;;;;;;15.50;66.38;102199.47;4998757;28;20054;-65
2021/09/21 06:08:49;;;;;;;32.10;22.02;;;;;;;15.31;65.07;102204.28;5001529;28;20062;-63
2021/09/21 06:11:20;;;;;;;33.13;21.67;;;;;;;15.16;67.38;102202.69;5011075;28;20050;-66
2021/09/21 06:13:47;;;;;;;25.42;20.40;;;;;;;15.35;71.02;102206.16;5027852;28;20050;-65
2021/09/21 06:16:16;;;;;;;29.05;21.52;;;;;;;14.96;68.08;102211.38;5022591;28;20037;-67
2021/09/21 06:18:43;;;;;;;27.23;20.67;;;;;;;15.26;66.65;102210.78;5012009;28;20061;-66
2021/09/21 06:21:10;;;;;;;28.92;21.38;;;;;;;14.88;68.12;102214.03;5006571;28;20064;-67
2021/09/21 06:23:38;;;;;;;30.35;20.25;;;;;;;15.96;66.88;102229.84;5011067;28;20045;-67
2021/09/21 06:26:05;;;;;;;29.08;21.80;;;;;;;14.74;64.06;102236.22;5001705;28;20057;-66
2021/09/21 06:28:32;;;;;;;27.48;21.83;;;;;;;13.95;66.91;102228.88;5011480;28;20052;-65
2021/09/21 06:31:00;;;;;;;34.30;21.58;;;;;;;13.91;69.64;102225.06;5008035;28;20572;-67
2021/09/21 06:33:27;;;;;;;31.13;20.42;;;;;;;14.81;67.25;102228.31;5010845;28;20061;-66
2021/09/21 06:35:54;;;;;;;29.55;19.90;;;;;;;14.12;67.18;102236.66;5013097;28;20056;-66
2021/09/21 06:38:22;;;;;;;24.20;18.42;;;;;;;14.88;67.34;102231.53;5011473;28;20057;-67
2021/09/21 06:40:49;;;;;;;24.35;17.90;;;;;;;14.83;67.12;102231.63;5001893;28;20038;-67
2021/09/21 06:43:17;;;;;;;30.17;19.77;;;;;;;14.95;63.69;102245.81;5002566;28;20060;-66
2021/09/21 06:45:44;;;;;;;29.63;17.70;;;;;;;14.39;66.75;102243.19;5012051;28;20058;-67
2021/09/21 06:48:12;;;;;;;24.63;17.27;;;;;;;14.93;64.69;102250.84;5013483;28;20045;-67
2021/09/21 06:50:40;;;;;;;27.92;17.80;;;;;;;14.82;63.24;102260.47;5012500;28;20064;-68
2021/09/21 06:53:07;;;;;;;25.05;16.75;;;;;;;14.38;63.31;102266.47;5012748;28;20045;-68
2021/09/21 06:55:34;;;;;;;30.05;17.10;;;;;;;14.84;65.74;102263.75;4999620;28;20061;-68
2021/09/21 06:58:04;;;;;;;28.20;16.23;;;;;;;14.19;65.48;102264.81;4999807;28;20062;-69
2021/09/21 07:00:35;;;;;;;25.15;15.35;;;;;;;14.29;65.39;102267.47;5013303;28;20046;-67
2021/09/21 07:03:02;;;;;;;20.98;14.02;;;;;;;14.54;62.95;102273.44;5000982;28;20054;-67
2021/09/21 07:05:30;;;;;;;16.65;12.98;;;;;;;14.49;63.62;102276.28;5006591;28;20053;-68
2021/09/21 07:07:57;;;;;;;26.63;16.65;;;;;;;14.35;62.33;102271.78;5013337;28;20378;-68
2021/09/21 07:10:25;;;;;;;23.67;13.93;;;;;;;14.53;62.35;102280.13;5005941;28;20042;-67
2021/09/21 07:12:52;;;;;;;24.30;15.32;;;;;;;14.63;61.32;102284.66;5013592;28;20054;-67
2021/09/21 07:15:23;;;;;;;32.30;17.27;;;;;;;14.43;61.93;102276.69;5012537;28;20049;-67
2021/09/21 07:17:52;;;;;;;22.65;12.68;;;;;;;14.97;62.32;102287.13;5013589;28;20049;-67
2021/09/21 07:20:21;;;;;;;20.15;14.20;;;;;;;14.57;59.46;102300.53;5001004;28;20050;-67
2021/09/21 07:22:48;;;;;;;22.45;11.98;;;;;;;15.32;61.48;102303.97;5015118;28;20053;-68
2021/09/21 07:25:18;;;;;;;20.83;14.02;;;;;;;14.73;59.58;102301.16;5013413;28;20414;-67
2021/09/21 07:27:47;;;;;;;19.95;13.57;;;;;;;14.60;60.69;102313.00;5007679;28;20053;-67
2021/09/21 07:30:15;;;;;;;22.63;14.18;;;;;;;14.42;61.00;102308.28;5007794;28;20053;-67
2021/09/21 07:32:43;;;;;;;21.60;13.73;;;;;;;14.69;61.19;102308.41;5015415;28;20046;-67
2021/09/21 07:35:10;;;;;;;17.65;11.50;;;;;;;15.17;59.92;102307.00;5014889;28;20050;-68
2021/09/21 07:37:37;;;;;;;18.92;11.80;;;;;;;15.00;59.21;102311.47;5011706;28;20058;-68
2021/09/21 07:40:06;;;;;;;20.83;12.23;;;;;;;14.74;59.66;102313.03;5005851;28;20058;-68
2021/09/21 07:42:33;;;;;;;20.02;11.70;;;;;;;14.49;60.01;102320.66;5006500;28;20049;-68
2021/09/21 07:45:02;;;;;;;19.35;10.93;;;;;;;14.76;61.62;102316.34;5016389;28;20054;-67
2021/09/21 07:47:29;;;;;;;20.63;11.15;;;;;;;14.92;59.95;102312.19;5011721;28;20366;-68
2021/09/21 07:49:56;;;;;;;19.88;11.13;;;;;;;15.08;57.58;102324.69;5003682;28;20058;-67
2021/09/21 07:52:24;;;;;;;15.02;10.52;;;;;;;14.82;57.71;102323.47;4994947;28;20042;-68
2021/09/21 07:54:51;;;;;;;16.65;10.18;;;;;;;14.38;58.33;102323.88;5009165;28;20068;-68
2021/09/21 07:57:18;;;;;;;18.88;10.10;;;;;;;14.22;59.00;102322.41;4998052;28;20054;-67
2021/09/21 07:59:46;;;;;;;17.17;9.82;;;;;;;14.25;59.73;102327.34;4997891;28;20054;-67
2021/09/21 08:02:14;;;;;;;17.83;9.82;;;;;;;14.37;58.97;102325.81;5002810;28;20070;-67
2021/09/21 08:04:44;;;;;;;21.48;9.73;;;;;;;14.71;58.10;102314.50;5014394;28;20061;-67
2021/09/21 08:07:11;;;;;;;15.18;9.30;;;;;;;14.22;58.52;102336.28;5014127;28;20041;-68
2021/09/21 08:09:39;;;;;;;20.52;8.75;;;;;;;14.27;57.64;102341.78;5009296;28;20054;-67
2021/09/21 08:12:07;;;;;;;14.80;8.15;;;;;;;14.06;57.97;102330.13;5015974;28;20448;-67
2021/09/21 08:14:37;;;;;;;13.88;8.30;;;;;;;13.74;57.50;102341.03;5020864;28;20050;-66
2021/09/21 08:17:06;;;;;;;13.65;7.85;;;;;;;13.87;58.00;102331.22;4996750;28;20567;-67
2021/09/21 08:19:34;;;;;;;14.90;7.25;;;;;;;14.33;57.02;102337.81;5017126;28;20053;-67
2021/09/21 08:22:02;;;;;;;17.52;7.43;;;;;;;14.17;56.72;102339.97;5018422;28;20057;-67
2021/09/21 08:24:30;;;;;;;14.70;7.15;;;;;;;13.99;56.82;102326.06;5021522;28;20048;-66
2021/09/21 08:26:57;;;;;;;12.68;6.88;;;;;;;14.04;56.48;102332.38;5035380;28;20057;-67
2021/09/21 08:29:24;;;;;;;13.85;7.60;;;;;;;14.24;56.49;102345.94;5016173;28;20045;-68
2021/09/21 08:31:52;;;;;;;16.60;7.50;;;;;;;14.39;55.87;102348.53;5189644;23;20420;-66
2021/09/21 08:34:19;;;;;;;13.10;7.43;;;;;;;14.33;55.11;102346.94;5032085;28;20045;-66
2021/09/21 08:36:49;;;;;;;12.93;7.07;;;;;;;14.17;55.43;102334.41;5029704;28;20050;-65
2021/09/21 08:39:17;;;;;;;;;;;;;;;14.05;55.72;102350.63;5027336;28;20051;-66
2021/09/21 08:41:46;;;;;;;11.43;6.43;;;;;;;13.97;55.82;102350.47;5038215;28;19926;-66
2021/09/21 08:44:16;;;;;;;9.15;6.38;;;;;;;14.19;56.00;102350.75;5023186;28;20062;-67
2021/09/21 08:46:44;;;;;;;13.07;6.47;;;;;;;14.31;55.29;102348.38;5015601;28;20389;-66
2021/09/21 08:49:12;;;;;;;12.55;7.68;;;;;;;14.46;54.99;102345.38;5049134;28;20526;-66
2021/09/21 08:51:40;;;;;;;11.77;7.05;;;;;;;14.30;54.82;102366.94;5035664;28;20060;-71
2021/09/21 08:54:07;;;;;;;16.10;6.93;;;;;;;14.21;54.95;102362.34;5035620;28;20045;-71
2021/09/21 08:56:34;;;;;;;14.75;7.60;;;;;;;14.07;55.43;102362.25;5032886;28;20046;-71
2021/09/21 08:59:07;;;;;;;12.15;7.07;;;;;;;14.18;55.43;102365.69;5018180;28;20440;-71
2021/09/21 09:01:43;;;;;;;12.95;7.05;;;;;;;14.28;55.60;102373.91;5034634;28;20042;-71
2021/09/21 09:04:12;;;;;;;12.75;7.10;;;;;;;14.21;54.98;102360.38;5036094;28;20058;-71
2021/09/21 09:06:47;;;;;;;12.93;7.47;;;;;;;14.21;54.84;102354.03;5027822;28;20635;-71
2021/09/21 09:09:17;;;;;;;16.17;7.47;;;;;;;14.14;55.28;102365.47;5020918;28;20053;-71
2021/09/21 09:11:49;;;;;;;13.18;7.85;;;;;;;14.22;55.26;102358.44;5015487;28;20056;-71
2021/09/21 09:14:19;;;;;;;10.60;7.20;;;;;;;14.33;55.30;102358.03;5019522;28;20516;-70
2021/09/21 09:16:54;;;;;;;13.65;7.75;;;;;;;14.32;55.08;102369.44;5030164;28;20626;-71
2021/09/21 09:19:30;;;;;;;14.98;8.13;;;;;;;14.39;54.83;102356.03;5050744;28;20045;-70
2021/09/21 09:22:08;;;;;;;10.63;7.00;;;;;;;14.64;54.66;102363.97;5036584;28;20045;-72
2021/09/21 09:24:51;;;;;;;11.27;7.32;;;;;;;14.56;54.83;102371.00;5020204;28;20048;-72
2021/09/21 09:27:20;;;;;;;12.18;7.22;;;;;;;14.65;54.35;102369.22;5021007;28;20065;-71
2021/09/21 09:29:58;;;;;;;14.93;7.28;;;;;;;14.63;54.70;102362.31;5025858;28;20103;-71
2021/09/21 09:32:26;;;;;;;13.50;7.90;;;;;;;14.53;55.04;102365.25;5031762;28;20060;-71
2021/09/21 09:34:58;;;;;;;13.68;7.88;;;;;;;14.71;54.71;102364.41;5035270;28;20092;-70
2021/09/21 09:37:41;;;;;;;16.52;7.63;;;;;;;14.83;54.12;102381.44;5028504;28;20046;-71
2021/09/21 09:40:10;;;;;;;13.60;7.68;;;;;;;14.78;54.27;102386.22;5033635;28;20056;-71
2021/09/21 09:42:42;;;;;;;12.40;8.60;;;;;;;14.64;54.07;102383.38;5034510;28;20053;-70
2021/09/21 09:45:10;;;;;;;12.45;8.35;;;;;;;14.70;54.06;102384.94;5030584;28;20072;-70
2021/09/21 09:47:50;;;;;;;13.95;7.78;;;;;;;14.78;54.16;102375.97;5036142;28;20069;-70
2021/09/21 09:50:17;;;;;;;16.55;9.68;;;;;;;14.78;53.99;102373.19;5031564;28;20053;-70
2021/09/21 09:52:45;;;;;;;11.60;7.97;;;;;;;14.93;53.91;102367.38;5036186;28;20045;-72
2021/09/21 09:55:12;;;;;;;13.02;8.32;;;;;;;15.25;53.33;102372.94;5023204;28;20061;-72
2021/09/21 09:57:41;;;;;;;13.75;9.68;;;;;;;14.96;53.17;102368.75;5025413;28;20057;-72
2021/09/21 10:00:09;;;;;;;16.02;9.40;;;;;;;15.10;53.23;102364.88;5032739;28;20060;-72
2021/09/21 10:02:39;;;;;;;16.40;9.70;;;;;;;15.26;52.76;102366.25;5014363;28;20038;-71
2021/09/21 10:05:08;;;;;;;18.10;9.60;;;;;;;15.33;53.11;102354.75;5020803;28;20599;-69
2021/09/21 10:07:35;;;;;;;14.60;9.27;;;;;;;15.69;52.33;102364.09;5029349;28;20069;-69
2021/09/21 10:10:04;;;;;;;15.13;10.30;;;;;;;15.61;52.17;102357.31;5028962;28;20049;-70
2021/09/21 10:12:32;;;;;;;16.33;9.70;;;;;;;15.64;52.51;102364.19;5033976;28;20049;-70
2021/09/21 10:14:59;;;;;;;15.70;10.70;;;;;;;15.64;52.10;102373.34;5033961;28;20072;-70
2021/09/21 10:17:31;;;;;;;19.08;11.20;;;;;;;15.46;52.73;102373.44;5012341;28;20076;-70
2021/09/21 10:19:58;;;;;;;15.02;10.50;;;;;;;15.43;52.63;102372.06;5038880;28;20072;-70
2021/09/21 10:22:30;;;;;;;18.33;10.40;;;;;;;15.69;52.53;102364.09;5033680;28;20042;-70
2021/09/21 10:25:08;;;;;;;16.08;10.70;;;;;;;15.74;52.56;102361.22;5033837;28;20061;-69
2021/09/21 10:27:37;;;;;;;14.52;10.27;;;;;;;16.10;52.73;102362.13;5033960;28;20156;-69
2021/09/21 10:30:07;;;;;;;16.25;11.07;;;;;;;16.22;51.50;102367.16;5018448;28;20057;-69
2021/09/21 10:32:45;;;;;;;17.25;11.00;;;;;;;15.82;52.02;102368.00;5015821;28;20054;-69
2021/09/21 10:35:15;;;;;;;16.40;11.13;;;;;;;15.83;52.34;102364.09;5023297;28;20050;-69
2021/09/21 10:37:42;;;;;;;18.83;11.85;;;;;;;15.83;52.58;102358.53;5026838;28;20077;-68
2021/09/21 10:40:11;;;;;;;25.00;12.07;;;;;;;15.97;52.22;102359.38;5049039;28;20056;-69
2021/09/21 10:42:50;;;;;;;15.93;11.55;;;;;;;15.87;52.68;102365.09;5027616;28;20042;-71
2021/09/21 10:45:25;;;;;;;15.02;11.45;;;;;;;15.69;53.06;102364.91;5024875;28;20072;-70
2021/09/21 10:48:04;;;;;;;16.65;12.95;;;;;;;15.65;53.21;102347.22;5025663;28;20049;-70
2021/09/21 10:50:39;;;;;;;16.65;12.52;;;;;;;15.68;53.09;102365.22;5037585;28;20073;-62
2021/09/21 10:53:08;;;;;;;16.90;12.70;;;;;;;16.06;52.65;102368.59;5030565;28;20053;-59
2021/09/21 10:55:38;;;;;;;14.73;11.68;;;;;;;16.02;52.29;102368.44;5015591;28;20050;-64
2021/09/21 10:58:11;;;;;;;16.55;12.88;;;;;;;15.97;52.17;102367.69;5023266;28;20053;-71
2021/09/21 11:00:38;;;;;;;22.15;12.77;;;;;;;16.06;52.16;102363.03;5017834;28;20060;-71
2021/09/21 11:03:06;;;;;;;16.73;12.15;;;;;;;15.99;52.67;102351.53;5025144;28;20054;-68
2021/09/21 11:05:33;;;;;;;17.15;12.15;;;;;;;16.17;52.09;102356.13;5024030;28;20048;-67
2021/09/21 11:08:03;;;;;;;19.40;13.45;;;;;;;16.14;52.17;102365.94;5021934;28;20052;-69
2021/09/21 11:10:33;;;;;;;18.33;13.20;;;;;;;16.08;52.26;102363.56;5027372;28;20045;-69
2021/09/21 11:13:01;;;;;;;18.42;13.13;;;;;;;16.30;52.18;102355.31;5028274;28;20045;-70
2021/09/21 11:15:29;;;;;;;20.65;14.15;;;;;;;16.26;51.99;102346.75;5025005;28;20054;-70
2021/09/21 11:18:15;;;;;;;16.30;12.18;;;;;;;16.58;51.51;102352.16;5030376;28;20053;-71
2021/09/21 11:20:48;;;;;;;19.02;13.93;;;;;;;16.32;51.90;102347.47;5031771;28;20056;-69
2021/09/21 11:23:18;;;;;;;19.00;13.85;;;;;;;16.47;51.78;102347.16;5032545;28;20407;-69
2021/09/21 11:25:46;;;;;;;;;;;;;;;16.58;51.33;102348.56;5035228;28;20064;-70
2021/09/21 11:28:14;;;;;;;19.73;15.43;;;;;;;16.77;51.00;102338.09;5032704;28;19920;-69
2021/09/21 11:30:43;;;;;;;25.30;14.25;;;;;;;16.42;51.80;102336.91;5015795;28;20056;-69